sensor_id;sensor_type;location;lat;lon;timestamp;P1;durP1;ratioP1;P2;durP2;ratioP2
22935;SDS011;11633;42.716;23.312;2023-06-14T00:00:30;5.40;;;4.22;;
22935;SDS011;11633;42.716;23.312;2023-06-14T00:02:56;4.57;;;3.80;;
22935;SDS011;11633;42.716;23.312;2023-06-14T00:05:21;5.45;;;4.25;;
22935;SDS011;11633;42.716;23.312;2023-06-14T00:07:48;4.88;;;4.35;;
22935;SDS011;11633;42.716;23.312;2023-06-14T00:10:14;4.45;;;3.97;;
22935;SDS011;11633;42.716;23.312;2023-06-14T00:12:39;5.10;;;4.25;;
22935;SDS011;11633;42.716;23.312;2023-06-14T00:15:05;5.10;;;4.57;;
22935;SDS011;11633;42.716;23.312;2023-06-14T00:17:30;4.38;;;3.97;;
22935;SDS011;11633;42.716;23.312;2023-06-14T00:19:56;4.22;;;3.70;;
22935;SDS011;11633;42.716;23.312;2023-06-14T00:22:22;4.90;;;4.40;;
22935;SDS011;11633;42.716;23.312;2023-06-14T00:24:49;6.95;;;4.07;;
22935;SDS011;11633;42.716;23.312;2023-06-14T00:27:15;5.20;;;4.70;;
22935;SDS011;11633;42.716;23.312;2023-06-14T00:29:40;7.15;;;4.63;;
22935;SDS011;11633;42.716;23.312;2023-06-14T00:32:06;5.20;;;4.70;;
22935;SDS011;11633;42.716;23.312;2023-06-14T00:34:31;5.88;;;4.38;;
22935;SDS011;11633;42.716;23.312;2023-06-14T00:36:56;6.28;;;4.60;;
22935;SDS011;11633;42.716;23.312;2023-06-14T00:39:22;5.90;;;4.72;;
22935;SDS011;11633;42.716;23.312;2023-06-14T00:41:47;5.20;;;4.70;;
22935;SDS011;11633;42.716;23.312;2023-06-14T00:44:13;5.45;;;4.45;;
22935;SDS011;11633;42.716;23.312;2023-06-14T00:46:41;5.30;;;4.75;;
22935;SDS011;11633;42.716;23.312;2023-06-14T00:49:06;6.22;;;5.07;;
22935;SDS011;11633;42.716;23.312;2023-06-14T00:51:31;4.85;;;4.32;;
22935;SDS011;11633;42.716;23.312;2023-06-14T00:53:57;7.03;;;5.10;;
22935;SDS011;11633;42.716;23.312;2023-06-14T00:56:22;5.95;;;5.35;;
22935;SDS011;11633;42.716;23.312;2023-06-14T00:58:48;6.22;;;5.07;;
22935;SDS011;11633;42.716;23.312;2023-06-14T01:01:14;5.90;;;5.35;;
22935;SDS011;11633;42.716;23.312;2023-06-14T01:03:40;6.57;;;5.15;;
22935;SDS011;11633;42.716;23.312;2023-06-14T01:09:07;6.45;;;5.03;;
22935;SDS011;11633;42.716;23.312;2023-06-14T01:14:18;6.90;;;5.18;;
22935;SDS011;11633;42.716;23.312;2023-06-14T01:16:43;8.00;;;5.00;;
22935;SDS011;11633;42.716;23.312;2023-06-14T01:19:11;6.95;;;5.25;;
22935;SDS011;11633;42.716;23.312;2023-06-14T01:21:38;5.30;;;4.70;;
22935;SDS011;11633;42.716;23.312;2023-06-14T01:24:07;8.38;;;5.72;;
22935;SDS011;11633;42.716;23.312;2023-06-14T01:26:32;5.13;;;4.63;;
22935;SDS011;11633;42.716;23.312;2023-06-14T01:28:57;5.68;;;5.18;;
22935;SDS011;11633;42.716;23.312;2023-06-14T01:31:23;6.10;;;5.50;;
22935;SDS011;11633;42.716;23.312;2023-06-14T01:33:49;5.50;;;5.00;;
22935;SDS011;11633;42.716;23.312;2023-06-14T01:36:16;5.72;;;4.72;;
22935;SDS011;11633;42.716;23.312;2023-06-14T01:38:41;5.47;;;4.97;;
22935;SDS011;11633;42.716;23.312;2023-06-14T01:41:07;5.32;;;4.60;;
22935;SDS011;11633;42.716;23.312;2023-06-14T01:43:32;6.88;;;4.90;;
22935;SDS011;11633;42.716;23.312;2023-06-14T01:45:59;5.15;;;4.65;;
22935;SDS011;11633;42.716;23.312;2023-06-14T01:48:25;5.65;;;5.00;;
22935;SDS011;11633;42.716;23.312;2023-06-14T01:50:51;6.82;;;5.93;;
22935;SDS011;11633;42.716;23.312;2023-06-14T01:53:17;6.25;;;5.20;;
22935;SDS011;11633;42.716;23.312;2023-06-14T01:55:42;5.20;;;4.70;;
22935;SDS011;11633;42.716;23.312;2023-06-14T01:58:09;5.93;;;5.05;;
22935;SDS011;11633;42.716;23.312;2023-06-14T02:00:34;5.55;;;4.68;;
22935;SDS011;11633;42.716;23.312;2023-06-14T02:03:00;5.82;;;5.22;;
22935;SDS011;11633;42.716;23.312;2023-06-14T02:05:25;6.50;;;5.20;;
22935;SDS011;11633;42.716;23.312;2023-06-14T02:07:51;5.70;;;5.10;;
22935;SDS011;11633;42.716;23.312;2023-06-14T02:10:16;5.18;;;4.68;;
22935;SDS011;11633;42.716;23.312;2023-06-14T02:12:42;5.32;;;4.80;;
22935;SDS011;11633;42.716;23.312;2023-06-14T02:15:08;5.65;;;5.10;;
22935;SDS011;11633;42.716;23.312;2023-06-14T02:17:34;6.85;;;5.13;;
22935;SDS011;11633;42.716;23.312;2023-06-14T02:19:59;6.05;;;5.07;;
22935;SDS011;11633;42.716;23.312;2023-06-14T02:22:24;8.65;;;6.38;;
22935;SDS011;11633;42.716;23.312;2023-06-14T02:24:50;8.02;;;5.20;;
22935;SDS011;11633;42.716;23.312;2023-06-14T02:27:15;6.95;;;5.80;;
22935;SDS011;11633;42.716;23.312;2023-06-14T02:29:41;7.70;;;5.60;;
22935;SDS011;11633;42.716;23.312;2023-06-14T02:32:07;5.93;;;5.18;;
22935;SDS011;11633;42.716;23.312;2023-06-14T02:34:32;6.97;;;5.82;;
22935;SDS011;11633;42.716;23.312;2023-06-14T02:36:58;6.57;;;5.05;;
22935;SDS011;11633;42.716;23.312;2023-06-14T02:39:23;5.60;;;5.10;;
22935;SDS011;11633;42.716;23.312;2023-06-14T02:41:49;5.90;;;5.20;;
22935;SDS011;11633;42.716;23.312;2023-06-14T02:44:15;5.75;;;5.22;;
22935;SDS011;11633;42.716;23.312;2023-06-14T02:46:42;5.72;;;4.78;;
22935;SDS011;11633;42.716;23.312;2023-06-14T02:49:08;5.72;;;5.22;;
22935;SDS011;11633;42.716;23.312;2023-06-14T02:51:33;9.80;;;5.32;;
22935;SDS011;11633;42.716;23.312;2023-06-14T02:53:59;5.18;;;4.65;;
22935;SDS011;11633;42.716;23.312;2023-06-14T02:56:24;6.72;;;4.93;;
22935;SDS011;11633;42.716;23.312;2023-06-14T02:58:51;5.00;;;4.32;;
22935;SDS011;11633;42.716;23.312;2023-06-14T03:01:16;6.75;;;5.40;;
22935;SDS011;11633;42.716;23.312;2023-06-14T03:03:42;6.47;;;5.07;;
22935;SDS011;11633;42.716;23.312;2023-06-14T03:06:07;6.82;;;5.18;;
22935;SDS011;11633;42.716;23.312;2023-06-14T03:08:33;6.10;;;5.47;;
22935;SDS011;11633;42.716;23.312;2023-06-14T03:11:03;9.48;;;5.38;;
22935;SDS011;11633;42.716;23.312;2023-06-14T03:13:30;6.40;;;5.13;;
22935;SDS011;11633;42.716;23.312;2023-06-14T03:15:57;6.10;;;5.47;;
22935;SDS011;11633;42.716;23.312;2023-06-14T03:18:22;7.82;;;5.18;;
22935;SDS011;11633;42.716;23.312;2023-06-14T03:20:47;8.50;;;5.90;;
22935;SDS011;11633;42.716;23.312;2023-06-14T03:23:12;6.80;;;5.32;;
22935;SDS011;11633;42.716;23.312;2023-06-14T03:25:38;5.75;;;5.03;;
22935;SDS011;11633;42.716;23.312;2023-06-14T03:28:05;9.15;;;5.57;;
22935;SDS011;11633;42.716;23.312;2023-06-14T03:30:31;7.43;;;5.60;;
22935;SDS011;11633;42.716;23.312;2023-06-14T03:32:56;10.15;;;5.90;;
22935;SDS011;11633;42.716;23.312;2023-06-14T03:35:22;9.60;;;6.30;;
22935;SDS011;11633;42.716;23.312;2023-06-14T03:37:47;9.27;;;6.50;;
22935;SDS011;11633;42.716;23.312;2023-06-14T03:40:14;6.93;;;5.43;;
22935;SDS011;11633;42.716;23.312;2023-06-14T03:42:40;6.68;;;4.95;;
22935;SDS011;11633;42.716;23.312;2023-06-14T03:45:06;8.00;;;4.95;;
22935;SDS011;11633;42.716;23.312;2023-06-14T03:47:31;6.00;;;5.40;;
22935;SDS011;11633;42.716;23.312;2023-06-14T03:49:56;7.90;;;5.10;;
22935;SDS011;11633;42.716;23.312;2023-06-14T03:52:22;7.28;;;5.45;;
22935;SDS011;11633;42.716;23.312;2023-06-14T03:54:48;6.60;;;4.93;;
22935;SDS011;11633;42.716;23.312;2023-06-14T03:57:14;8.45;;;5.30;;
22935;SDS011;11633;42.716;23.312;2023-06-14T03:59:39;7.50;;;5.80;;
22935;SDS011;11633;42.716;23.312;2023-06-14T04:02:04;6.20;;;5.40;;
22935;SDS011;11633;42.716;23.312;2023-06-14T04:04:30;8.35;;;5.68;;
22935;SDS011;11633;42.716;23.312;2023-06-14T04:06:55;9.13;;;5.32;;
22935;SDS011;11633;42.716;23.312;2023-06-14T04:09:22;10.35;;;5.85;;
22935;SDS011;11633;42.716;23.312;2023-06-14T04:11:47;6.30;;;5.15;;
22935;SDS011;11633;42.716;23.312;2023-06-14T04:14:13;7.80;;;5.78;;
22935;SDS011;11633;42.716;23.312;2023-06-14T04:16:38;8.25;;;6.63;;
22935;SDS011;11633;42.716;23.312;2023-06-14T04:19:03;8.60;;;5.35;;
22935;SDS011;11633;42.716;23.312;2023-06-14T04:21:28;8.55;;;5.72;;
22935;SDS011;11633;42.716;23.312;2023-06-14T04:23:54;8.35;;;4.93;;
22935;SDS011;11633;42.716;23.312;2023-06-14T04:26:20;7.07;;;4.43;;
22935;SDS011;11633;42.716;23.312;2023-06-14T04:28:46;7.45;;;4.03;;
22935;SDS011;11633;42.716;23.312;2023-06-14T04:31:12;4.32;;;3.70;;
22935;SDS011;11633;42.716;23.312;2023-06-14T04:33:37;8.20;;;4.40;;
22935;SDS011;11633;42.716;23.312;2023-06-14T04:36:10;7.05;;;4.30;;
22935;SDS011;11633;42.716;23.312;2023-06-14T04:38:37;6.05;;;4.45;;
22935;SDS011;11633;42.716;23.312;2023-06-14T04:41:02;5.85;;;4.13;;
22935;SDS011;11633;42.716;23.312;2023-06-14T04:43:27;5.60;;;5.10;;
22935;SDS011;11633;42.716;23.312;2023-06-14T04:45:52;6.85;;;4.88;;
22935;SDS011;11633;42.716;23.312;2023-06-14T04:48:19;8.27;;;5.40;;
22935;SDS011;11633;42.716;23.312;2023-06-14T04:50:45;4.75;;;4.15;;
22935;SDS011;11633;42.716;23.312;2023-06-14T04:53:10;5.50;;;4.32;;
22935;SDS011;11633;42.716;23.312;2023-06-14T04:55:36;5.50;;;4.70;;
22935;SDS011;11633;42.716;23.312;2023-06-14T04:58:02;7.43;;;4.35;;
22935;SDS011;11633;42.716;23.312;2023-06-14T05:00:28;4.82;;;4.30;;
22935;SDS011;11633;42.716;23.312;2023-06-14T05:02:53;9.23;;;4.97;;
22935;SDS011;11633;42.716;23.312;2023-06-14T05:05:18;7.38;;;4.05;;
22935;SDS011;11633;42.716;23.312;2023-06-14T05:07:44;6.75;;;5.47;;
22935;SDS011;11633;42.716;23.312;2023-06-14T05:10:10;6.65;;;5.40;;
22935;SDS011;11633;42.716;23.312;2023-06-14T05:12:35;5.82;;;4.80;;
22935;SDS011;11633;42.716;23.312;2023-06-14T05:15:01;6.80;;;4.72;;
22935;SDS011;11633;42.716;23.312;2023-06-14T05:17:27;5.88;;;4.90;;
22935;SDS011;11633;42.716;23.312;2023-06-14T05:19:53;7.80;;;5.85;;
22935;SDS011;11633;42.716;23.312;2023-06-14T05:22:18;9.13;;;5.68;;
22935;SDS011;11633;42.716;23.312;2023-06-14T05:24:43;6.78;;;5.45;;
22935;SDS011;11633;42.716;23.312;2023-06-14T05:27:09;11.60;;;6.20;;
22935;SDS011;11633;42.716;23.312;2023-06-14T05:29:34;6.78;;;5.32;;
22935;SDS011;11633;42.716;23.312;2023-06-14T05:31:59;10.40;;;5.40;;
22935;SDS011;11633;42.716;23.312;2023-06-14T05:34:25;13.05;;;6.40;;
22935;SDS011;11633;42.716;23.312;2023-06-14T05:36:50;8.13;;;5.05;;
22935;SDS011;11633;42.716;23.312;2023-06-14T05:39:15;11.82;;;6.20;;
22935;SDS011;11633;42.716;23.312;2023-06-14T05:41:40;8.07;;;5.30;;
22935;SDS011;11633;42.716;23.312;2023-06-14T05:44:06;6.65;;;5.78;;
22935;SDS011;11633;42.716;23.312;2023-06-14T05:46:32;6.95;;;5.53;;
22935;SDS011;11633;42.716;23.312;2023-06-14T05:48:58;8.15;;;5.90;;
22935;SDS011;11633;42.716;23.312;2023-06-14T05:51:23;6.50;;;5.40;;
22935;SDS011;11633;42.716;23.312;2023-06-14T05:53:50;7.03;;;5.93;;
22935;SDS011;11633;42.716;23.312;2023-06-14T05:56:15;10.20;;;6.15;;
22935;SDS011;11633;42.716;23.312;2023-06-14T05:58:42;6.80;;;6.10;;
22935;SDS011;11633;42.716;23.312;2023-06-14T06:01:08;11.55;;;6.95;;
22935;SDS011;11633;42.716;23.312;2023-06-14T06:03:33;10.05;;;9.02;;
22935;SDS011;11633;42.716;23.312;2023-06-14T06:05:59;8.13;;;7.35;;
22935;SDS011;11633;42.716;23.312;2023-06-14T06:08:24;11.35;;;9.63;;
22935;SDS011;11633;42.716;23.312;2023-06-14T06:10:49;11.90;;;9.38;;
22935;SDS011;11633;42.716;23.312;2023-06-14T06:13:15;10.40;;;9.27;;
22935;SDS011;11633;42.716;23.312;2023-06-14T06:15:40;10.88;;;8.88;;
22935;SDS011;11633;42.716;23.312;2023-06-14T06:18:06;17.70;;;10.70;;
22935;SDS011;11633;42.716;23.312;2023-06-14T06:20:31;10.60;;;9.60;;
22935;SDS011;11633;42.716;23.312;2023-06-14T06:22:57;15.27;;;10.02;;
22935;SDS011;11633;42.716;23.312;2023-06-14T06:25:23;16.42;;;9.98;;
22935;SDS011;11633;42.716;23.312;2023-06-14T06:27:50;11.23;;;8.57;;
22935;SDS011;11633;42.716;23.312;2023-06-14T06:30:16;15.93;;;9.52;;
22935;SDS011;11633;42.716;23.312;2023-06-14T06:32:41;20.63;;;9.50;;
22935;SDS011;11633;42.716;23.312;2023-06-14T06:35:06;12.10;;;8.80;;
22935;SDS011;11633;42.716;23.312;2023-06-14T06:37:33;13.75;;;9.70;;
22935;SDS011;11633;42.716;23.312;2023-06-14T06:39:59;10.75;;;9.55;;
22935;SDS011;11633;42.716;23.312;2023-06-14T06:42:24;10.90;;;9.68;;
22935;SDS011;11633;42.716;23.312;2023-06-14T06:44:49;10.60;;;9.52;;
22935;SDS011;11633;42.716;23.312;2023-06-14T06:47:15;11.68;;;9.68;;
22935;SDS011;11633;42.716;23.312;2023-06-14T06:49:40;11.82;;;10.43;;
22935;SDS011;11633;42.716;23.312;2023-06-14T06:52:06;12.27;;;10.85;;
22935;SDS011;11633;42.716;23.312;2023-06-14T06:54:32;14.23;;;11.68;;
22935;SDS011;11633;42.716;23.312;2023-06-14T06:56:57;12.27;;;11.07;;
22935;SDS011;11633;42.716;23.312;2023-06-14T06:59:23;13.02;;;9.75;;
22935;SDS011;11633;42.716;23.312;2023-06-14T07:01:48;12.80;;;9.38;;
22935;SDS011;11633;42.716;23.312;2023-06-14T07:04:13;11.20;;;9.80;;
22935;SDS011;11633;42.716;23.312;2023-06-14T07:06:39;15.50;;;8.98;;
22935;SDS011;11633;42.716;23.312;2023-06-14T07:09:04;15.07;;;8.55;;
22935;SDS011;11633;42.716;23.312;2023-06-14T07:11:33;10.57;;;9.25;;
22935;SDS011;11633;42.716;23.312;2023-06-14T07:13:58;10.27;;;8.60;;
22935;SDS011;11633;42.716;23.312;2023-06-14T07:16:23;11.93;;;9.27;;
22935;SDS011;11633;42.716;23.312;2023-06-14T07:18:48;12.10;;;9.13;;
22935;SDS011;11633;42.716;23.312;2023-06-14T07:21:13;9.50;;;8.57;;
22935;SDS011;11633;42.716;23.312;2023-06-14T07:23:39;10.85;;;9.10;;
22935;SDS011;11633;42.716;23.312;2023-06-14T07:26:04;12.00;;;10.05;;
22935;SDS011;11633;42.716;23.312;2023-06-14T07:28:30;8.20;;;7.40;;
22935;SDS011;11633;42.716;23.312;2023-06-14T07:30:55;9.25;;;7.50;;
22935;SDS011;11633;42.716;23.312;2023-06-14T07:33:20;9.68;;;7.05;;
22935;SDS011;11633;42.716;23.312;2023-06-14T07:35:45;8.55;;;7.85;;
22935;SDS011;11633;42.716;23.312;2023-06-14T07:38:11;10.93;;;8.70;;
22935;SDS011;11633;42.716;23.312;2023-06-14T07:40:36;9.00;;;8.10;;
22935;SDS011;11633;42.716;23.312;2023-06-14T07:43:01;8.75;;;7.80;;
22935;SDS011;11633;42.716;23.312;2023-06-14T07:45:27;9.25;;;8.35;;
22935;SDS011;11633;42.716;23.312;2023-06-14T07:47:52;8.43;;;6.93;;
22935;SDS011;11633;42.716;23.312;2023-06-14T07:50:17;8.88;;;7.75;;
22935;SDS011;11633;42.716;23.312;2023-06-14T07:52:43;8.60;;;7.80;;
22935;SDS011;11633;42.716;23.312;2023-06-14T07:55:08;9.57;;;8.65;;
22935;SDS011;11633;42.716;23.312;2023-06-14T07:57:34;9.73;;;8.70;;
22935;SDS011;11633;42.716;23.312;2023-06-14T08:00:00;13.73;;;11.15;;
22935;SDS011;11633;42.716;23.312;2023-06-14T08:02:25;9.23;;;8.23;;
22935;SDS011;11633;42.716;23.312;2023-06-14T08:04:50;9.40;;;8.48;;
22935;SDS011;11633;42.716;23.312;2023-06-14T08:07:16;11.45;;;7.30;;
22935;SDS011;11633;42.716;23.312;2023-06-14T08:09:41;9.57;;;6.88;;
22935;SDS011;11633;42.716;23.312;2023-06-14T08:12:06;7.43;;;6.60;;
22935;SDS011;11633;42.716;23.312;2023-06-14T08:14:33;8.13;;;7.43;;
22935;SDS011;11633;42.716;23.312;2023-06-14T08:16:58;10.32;;;7.80;;
22935;SDS011;11633;42.716;23.312;2023-06-14T08:19:23;11.00;;;7.88;;
22935;SDS011;11633;42.716;23.312;2023-06-14T08:21:48;9.00;;;7.07;;
22935;SDS011;11633;42.716;23.312;2023-06-14T08:24:14;9.50;;;7.10;;
22935;SDS011;11633;42.716;23.312;2023-06-14T08:26:39;8.32;;;7.28;;
22935;SDS011;11633;42.716;23.312;2023-06-14T08:29:05;9.57;;;8.55;;
22935;SDS011;11633;42.716;23.312;2023-06-14T08:31:32;11.20;;;7.63;;
22935;SDS011;11633;42.716;23.312;2023-06-14T08:33:58;10.93;;;8.57;;
22935;SDS011;11633;42.716;23.312;2023-06-14T08:36:23;8.38;;;7.57;;
22935;SDS011;11633;42.716;23.312;2023-06-14T08:38:48;13.70;;;8.88;;
22935;SDS011;11633;42.716;23.312;2023-06-14T08:41:13;9.07;;;8.18;;
22935;SDS011;11633;42.716;23.312;2023-06-14T08:43:41;8.85;;;7.95;;
22935;SDS011;11633;42.716;23.312;2023-06-14T08:46:07;8.57;;;7.68;;
22935;SDS011;11633;42.716;23.312;2023-06-14T08:48:35;8.55;;;7.07;;
22935;SDS011;11633;42.716;23.312;2023-06-14T08:51:01;8.60;;;6.97;;
22935;SDS011;11633;42.716;23.312;2023-06-14T08:53:32;8.95;;;7.63;;
22935;SDS011;11633;42.716;23.312;2023-06-14T08:56:02;8.85;;;7.95;;
22935;SDS011;11633;42.716;23.312;2023-06-14T08:58:29;9.52;;;8.40;;
22935;SDS011;11633;42.716;23.312;2023-06-14T09:00:56;10.93;;;7.90;;
22935;SDS011;11633;42.716;23.312;2023-06-14T09:03:22;9.18;;;7.50;;
22935;SDS011;11633;42.716;23.312;2023-06-14T09:05:48;9.32;;;7.90;;
22935;SDS011;11633;42.716;23.312;2023-06-14T09:08:13;9.88;;;7.75;;
22935;SDS011;11633;42.716;23.312;2023-06-14T09:10:39;9.10;;;7.25;;
22935;SDS011;11633;42.716;23.312;2023-06-14T09:13:05;10.05;;;8.75;;
22935;SDS011;11633;42.716;23.312;2023-06-14T09:15:31;8.90;;;8.00;;
22935;SDS011;11633;42.716;23.312;2023-06-14T09:17:57;10.80;;;8.80;;
22935;SDS011;11633;42.716;23.312;2023-06-14T09:20:23;8.13;;;7.32;;
22935;SDS011;11633;42.716;23.312;2023-06-14T09:22:48;9.50;;;8.13;;
22935;SDS011;11633;42.716;23.312;2023-06-14T09:25:14;9.23;;;8.13;;
22935;SDS011;11633;42.716;23.312;2023-06-14T09:27:43;9.52;;;8.63;;
22935;SDS011;11633;42.716;23.312;2023-06-14T09:30:09;12.40;;;8.25;;
22935;SDS011;11633;42.716;23.312;2023-06-14T09:32:38;11.07;;;7.88;;
22935;SDS011;11633;42.716;23.312;2023-06-14T09:35:05;9.18;;;8.18;;
22935;SDS011;11633;42.716;23.312;2023-06-14T09:37:31;9.65;;;8.70;;
22935;SDS011;11633;42.716;23.312;2023-06-14T09:39:57;10.48;;;8.02;;
22935;SDS011;11633;42.716;23.312;2023-06-14T09:42:22;11.02;;;9.20;;
22935;SDS011;11633;42.716;23.312;2023-06-14T09:44:50;10.98;;;8.35;;
22935;SDS011;11633;42.716;23.312;2023-06-14T09:47:16;8.48;;;7.57;;
22935;SDS011;11633;42.716;23.312;2023-06-14T09:49:44;9.48;;;8.55;;
22935;SDS011;11633;42.716;23.312;2023-06-14T09:52:10;10.48;;;8.63;;
22935;SDS011;11633;42.716;23.312;2023-06-14T09:54:39;9.77;;;8.52;;
22935;SDS011;11633;42.716;23.312;2023-06-14T09:57:05;11.85;;;9.00;;
22935;SDS011;11633;42.716;23.312;2023-06-14T09:59:32;12.57;;;8.35;;
22935;SDS011;11633;42.716;23.312;2023-06-14T10:01:58;10.82;;;9.32;;
22935;SDS011;11633;42.716;23.312;2023-06-14T10:04:24;11.93;;;8.18;;
22935;SDS011;11633;42.716;23.312;2023-06-14T10:06:50;9.10;;;8.20;;
22935;SDS011;11633;42.716;23.312;2023-06-14T10:09:15;10.10;;;8.63;;
22935;SDS011;11633;42.716;23.312;2023-06-14T10:11:41;10.63;;;9.55;;
22935;SDS011;11633;42.716;23.312;2023-06-14T10:14:09;11.33;;;9.50;;
22935;SDS011;11633;42.716;23.312;2023-06-14T10:19:34;8.50;;;7.60;;
22935;SDS011;11633;42.716;23.312;2023-06-14T10:22:00;8.95;;;7.93;;
22935;SDS011;11633;42.716;23.312;2023-06-14T10:24:31;9.35;;;7.95;;
22935;SDS011;11633;42.716;23.312;2023-06-14T10:26:58;10.18;;;9.18;;
22935;SDS011;11633;42.716;23.312;2023-06-14T10:29:24;9.00;;;7.55;;
22935;SDS011;11633;42.716;23.312;2023-06-14T10:31:50;11.23;;;8.57;;
22935;SDS011;11633;42.716;23.312;2023-06-14T10:34:25;11.00;;;9.25;;
22935;SDS011;11633;42.716;23.312;2023-06-14T10:37:04;9.32;;;8.25;;
22935;SDS011;11633;42.716;23.312;2023-06-14T10:39:30;11.25;;;9.75;;
22935;SDS011;11633;42.716;23.312;2023-06-14T10:41:56;11.95;;;10.82;;
22935;SDS011;11633;42.716;23.312;2023-06-14T10:46:47;9.80;;;8.80;;
22935;SDS011;11633;42.716;23.312;2023-06-14T10:49:16;10.25;;;8.70;;
22935;SDS011;11633;42.716;23.312;2023-06-14T10:51:45;8.68;;;7.75;;
22935;SDS011;11633;42.716;23.312;2023-06-14T10:54:12;14.75;;;11.00;;
22935;SDS011;11633;42.716;23.312;2023-06-14T10:56:47;9.55;;;8.30;;
22935;SDS011;11633;42.716;23.312;2023-06-14T10:59:13;8.57;;;7.10;;
22935;SDS011;11633;42.716;23.312;2023-06-14T11:01:41;8.68;;;7.88;;
22935;SDS011;11633;42.716;23.312;2023-06-14T11:04:09;9.57;;;8.05;;
22935;SDS011;11633;42.716;23.312;2023-06-14T11:09:45;8.13;;;7.38;;
22935;SDS011;11633;42.716;23.312;2023-06-14T11:12:15;8.50;;;7.70;;
22935;SDS011;11633;42.716;23.312;2023-06-14T11:14:40;8.90;;;8.00;;
22935;SDS011;11633;42.716;23.312;2023-06-14T11:17:05;9.32;;;7.60;;
22935;SDS011;11633;42.716;23.312;2023-06-14T11:19:31;8.88;;;7.78;;
22935;SDS011;11633;42.716;23.312;2023-06-14T11:21:56;10.38;;;7.97;;
22935;SDS011;11633;42.716;23.312;2023-06-14T11:24:22;7.88;;;6.57;;
22935;SDS011;11633;42.716;23.312;2023-06-14T11:26:47;8.35;;;6.82;;
22935;SDS011;11633;42.716;23.312;2023-06-14T11:29:14;10.18;;;7.18;;
22935;SDS011;11633;42.716;23.312;2023-06-14T11:31:42;8.38;;;6.85;;
22935;SDS011;11633;42.716;23.312;2023-06-14T11:34:08;7.07;;;6.38;;
22935;SDS011;11633;42.716;23.312;2023-06-14T11:36:33;8.05;;;6.72;;
22935;SDS011;11633;42.716;23.312;2023-06-14T11:38:59;8.70;;;6.88;;
22935;SDS011;11633;42.716;23.312;2023-06-14T11:41:25;8.00;;;7.20;;
22935;SDS011;11633;42.716;23.312;2023-06-14T11:43:53;7.55;;;6.85;;
22935;SDS011;11633;42.716;23.312;2023-06-14T11:46:19;7.10;;;6.43;;
22935;SDS011;11633;42.716;23.312;2023-06-14T11:48:49;8.55;;;7.07;;
22935;SDS011;11633;42.716;23.312;2023-06-14T11:51:14;7.03;;;6.10;;
22935;SDS011;11633;42.716;23.312;2023-06-14T11:53:39;6.93;;;6.05;;
22935;SDS011;11633;42.716;23.312;2023-06-14T11:56:05;7.88;;;6.47;;
22935;SDS011;11633;42.716;23.312;2023-06-14T11:58:30;7.50;;;6.80;;
22935;SDS011;11633;42.716;23.312;2023-06-14T12:00:56;6.40;;;5.80;;
22935;SDS011;11633;42.716;23.312;2023-06-14T12:03:25;6.65;;;5.97;;
22935;SDS011;11633;42.716;23.312;2023-06-14T12:06:05;6.97;;;5.68;;
22935;SDS011;11633;42.716;23.312;2023-06-14T12:08:35;6.18;;;5.57;;
22935;SDS011;11633;42.716;23.312;2023-06-14T12:11:04;7.72;;;5.57;;
22935;SDS011;11633;42.716;23.312;2023-06-14T12:13:30;6.45;;;5.47;;
22935;SDS011;11633;42.716;23.312;2023-06-14T12:15:58;7.10;;;5.68;;
22935;SDS011;11633;42.716;23.312;2023-06-14T12:18:33;6.60;;;6.00;;
22935;SDS011;11633;42.716;23.312;2023-06-14T12:20:59;6.18;;;5.57;;
22935;SDS011;11633;42.716;23.312;2023-06-14T12:23:38;6.90;;;5.57;;
22935;SDS011;11633;42.716;23.312;2023-06-14T12:26:04;6.20;;;5.25;;
22935;SDS011;11633;42.716;23.312;2023-06-14T12:28:30;8.20;;;5.97;;
22935;SDS011;11633;42.716;23.312;2023-06-14T12:30:56;7.30;;;5.57;;
22935;SDS011;11633;42.716;23.312;2023-06-14T12:33:23;6.65;;;5.20;;
22935;SDS011;11633;42.716;23.312;2023-06-14T12:35:49;5.60;;;5.00;;
22935;SDS011;11633;42.716;23.312;2023-06-14T12:38:15;7.20;;;6.50;;
22935;SDS011;11633;42.716;23.312;2023-06-14T12:40:41;7.03;;;5.90;;
22935;SDS011;11633;42.716;23.312;2023-06-14T12:43:07;5.88;;;5.10;;
22935;SDS011;11633;42.716;23.312;2023-06-14T12:45:32;8.02;;;5.20;;
22935;SDS011;11633;42.716;23.312;2023-06-14T12:47:57;5.20;;;4.70;;
22935;SDS011;11633;42.716;23.312;2023-06-14T12:50:23;5.78;;;5.13;;
22935;SDS011;11633;42.716;23.312;2023-06-14T12:52:48;5.10;;;4.60;;
22935;SDS011;11633;42.716;23.312;2023-06-14T12:55:13;5.82;;;5.25;;
22935;SDS011;11633;42.716;23.312;2023-06-14T12:57:39;5.50;;;5.00;;
22935;SDS011;11633;42.716;23.312;2023-06-14T13:00:05;5.43;;;4.60;;
22935;SDS011;11633;42.716;23.312;2023-06-14T13:02:32;5.72;;;5.07;;
22935;SDS011;11633;42.716;23.312;2023-06-14T13:04:57;5.03;;;4.35;;
22935;SDS011;11633;42.716;23.312;2023-06-14T13:07:24;6.28;;;4.43;;
22935;SDS011;11633;42.716;23.312;2023-06-14T13:09:49;5.15;;;4.55;;
22935;SDS011;11633;42.716;23.312;2023-06-14T13:12:14;5.30;;;4.68;;
22935;SDS011;11633;42.716;23.312;2023-06-14T13:14:39;6.03;;;4.88;;
22935;SDS011;11633;42.716;23.312;2023-06-14T13:17:06;6.35;;;4.43;;
22935;SDS011;11633;42.716;23.312;2023-06-14T13:19:31;4.88;;;4.40;;
22935;SDS011;11633;42.716;23.312;2023-06-14T13:21:56;7.20;;;4.53;;
22935;SDS011;11633;42.716;23.312;2023-06-14T13:24:22;5.22;;;4.72;;
22935;SDS011;11633;42.716;23.312;2023-06-14T13:26:47;4.65;;;3.95;;
22935;SDS011;11633;42.716;23.312;2023-06-14T13:29:12;5.35;;;3.83;;
22935;SDS011;11633;42.716;23.312;2023-06-14T13:31:38;6.72;;;5.03;;
22935;SDS011;11633;42.716;23.312;2023-06-14T13:34:03;6.70;;;4.85;;
22935;SDS011;11633;42.716;23.312;2023-06-14T13:36:29;5.53;;;4.45;;
22935;SDS011;11633;42.716;23.312;2023-06-14T13:38:55;6.13;;;4.95;;
22935;SDS011;11633;42.716;23.312;2023-06-14T13:41:20;5.28;;;4.78;;
22935;SDS011;11633;42.716;23.312;2023-06-14T13:43:45;5.10;;;4.65;;
22935;SDS011;11633;42.716;23.312;2023-06-14T13:46:11;6.07;;;5.00;;
22935;SDS011;11633;42.716;23.312;2023-06-14T13:48:36;5.47;;;4.65;;
22935;SDS011;11633;42.716;23.312;2023-06-14T13:51:01;6.20;;;4.93;;
22935;SDS011;11633;42.716;23.312;2023-06-14T13:53:29;5.47;;;4.90;;
22935;SDS011;11633;42.716;23.312;2023-06-14T13:55:54;5.45;;;4.78;;
22935;SDS011;11633;42.716;23.312;2023-06-14T13:58:19;8.00;;;5.57;;
22935;SDS011;11633;42.716;23.312;2023-06-14T14:00:44;5.72;;;5.03;;
22935;SDS011;11633;42.716;23.312;2023-06-14T14:03:10;6.75;;;6.05;;
22935;SDS011;11633;42.716;23.312;2023-06-14T14:05:36;5.85;;;5.30;;
22935;SDS011;11633;42.716;23.312;2023-06-14T14:08:01;6.95;;;5.72;;
22935;SDS011;11633;42.716;23.312;2023-06-14T14:10:27;6.57;;;5.40;;
22935;SDS011;11633;42.716;23.312;2023-06-14T14:12:52;7.60;;;5.15;;
22935;SDS011;11633;42.716;23.312;2023-06-14T14:15:18;6.47;;;5.50;;
22935;SDS011;11633;42.716;23.312;2023-06-14T14:17:44;5.55;;;4.95;;
22935;SDS011;11633;42.716;23.312;2023-06-14T14:20:09;5.38;;;4.63;;
22935;SDS011;11633;42.716;23.312;2023-06-14T14:22:36;7.25;;;5.95;;
22935;SDS011;11633;42.716;23.312;2023-06-14T14:25:02;7.55;;;5.18;;
22935;SDS011;11633;42.716;23.312;2023-06-14T14:27:27;6.55;;;5.03;;
22935;SDS011;11633;42.716;23.312;2023-06-14T14:29:52;6.15;;;5.18;;
22935;SDS011;11633;42.716;23.312;2023-06-14T14:32:17;4.93;;;4.50;;
22935;SDS011;11633;42.716;23.312;2023-06-14T14:34:42;7.43;;;4.68;;
22935;SDS011;11633;42.716;23.312;2023-06-14T14:37:08;5.30;;;4.80;;